| time (UTC) | temp F | wind direction | speed knots | gust knots | rain 1hr in | rain 24hr in | rain mn in | humidity % | barometer mb |
| 20260505064505 | 58 | 224 | 0.9 | 2.6 | 0.00 | 0.00 | 0.00 | 77 | 1009.9 |
| 20260505063008 | 57 | 226 | 0.0 | 1.7 | 0.00 | 0.00 | 0.00 | 76 | 1009.8 |
| 20260505061508 | 57 | 224 | 0.0 | 0.9 | 0.00 | 0.00 | 0.00 | 76 | 1009.8 |
| 20260505061503 | 57 | 224 | 0.0 | 0.9 | 0.00 | 0.00 | 0.00 | 76 | 1010.0 |
| 20260505060006 | 57 | 224 | 0.0 | 0.9 | 0.00 | 0.00 | 0.00 | 75 | 1010.0 |
| 20260505060004 | 57 | 224 | 0.0 | 0.9 | 0.00 | 0.00 | 0.00 | 75 | 1009.9 |
| 20260505054504 | 56 | 225 | 0.0 | 0.9 | 0.00 | 0.00 | 0.00 | 75 | 1010.1 |
| 20260505053005 | 56 | 225 | 0.0 | 0.9 | 0.00 | 0.00 | 0.00 | 74 | 1010.0 |
| 20260505053003 | 56 | 225 | 0.0 | 0.9 | 0.00 | 0.00 | 0.00 | 74 | 1009.9 |
| 20260505051506 | 56 | 225 | 0.0 | 0.9 | 0.00 | 0.00 | 0.00 | 73 | 1009.9 |
| 20260505051504 | 56 | 225 | 0.0 | 0.9 | 0.00 | 0.00 | 0.00 | 73 | 1010.1 |
| 20260505041504 | 58 | 225 | 0.0 | 0.9 | 0.00 | 0.00 | 0.00 | 70 | 1009.7 |
| 20260505040008 | 58 | 225 | 0.0 | 1.7 | 0.00 | 0.00 | 0.00 | 69 | 1009.8 |
| 20260505034505 | 58 | 224 | 0.0 | 1.7 | 0.00 | 0.00 | 0.00 | 69 | 1009.6 |
| 20260505034503 | 58 | 224 | 0.0 | 1.7 | 0.00 | 0.00 | 0.00 | 69 | 1009.4 |
| 20260505033004 | 59 | 224 | 0.0 | 1.7 | 0.00 | 0.00 | 0.00 | 68 | 1009.4 |
| 20260505031504 | 59 | 227 | 0.0 | 1.7 | 0.00 | 0.00 | 0.00 | 67 | 1009.9 |
| 20260505031502 | 59 | 227 | 0.0 | 1.7 | 0.00 | 0.00 | 0.00 | 67 | 1009.7 |
| 20260505030015 | 59 | 226 | 0.0 | 0.9 | 0.00 | 0.00 | 0.00 | 67 | 1009.7 |
| 20260505030005 | 59 | 226 | 0.0 | 0.9 | 0.00 | 0.00 | 0.00 | 67 | 1009.8 |
| 20260505024505 | 59 | 224 | 0.0 | 1.7 | 0.00 | 0.00 | 0.00 | 67 | 1009.8 |
| 20260505024503 | 59 | 224 | 0.0 | 1.7 | 0.00 | 0.00 | 0.00 | 67 | 1009.6 |
| 20260505023004 | 60 | 225 | 0.0 | 1.7 | 0.00 | 0.00 | 0.00 | 66 | 1009.7 |
| 20260505021504 | 60 | 225 | 0.0 | 1.7 | 0.00 | 0.00 | 0.00 | 65 | 1009.8 |
| 20260505020007 | 60 | 227 | 0.0 | 1.7 | 0.00 | 0.00 | 0.00 | 65 | 1010.0 |
| 20260505020005 | 60 | 227 | 0.0 | 1.7 | 0.00 | 0.00 | 0.00 | 65 | 1009.8 |
| 20260505014504 | 60 | 226 | 0.0 | 0.9 | 0.00 | 0.00 | 0.00 | 64 | 1010.0 |
| 20260505013005 | 60 | 226 | 0.0 | 0.9 | 0.00 | 0.00 | 0.00 | 62 | 1009.9 |
| 20260505013003 | 60 | 226 | 0.0 | 0.9 | 0.00 | 0.00 | 0.00 | 62 | 1009.8 |
| 20260505011506 | 61 | 227 | 0.0 | 0.0 | 0.00 | 0.00 | 0.00 | 61 | 1009.5 |
| 20260505010005 | 62 | 227 | 0.0 | 0.0 | 0.00 | 0.00 | 0.00 | 60 | 1009.5 |
| 20260505004504 | 62 | 229 | 0.0 | 0.9 | 0.00 | 0.00 | 0.00 | 58 | 1009.4 |
| 20260505003005 | 63 | 227 | 0.0 | 0.9 | 0.00 | 0.00 | 0.00 | 57 | 1009.3 |
| 20260505003003 | 63 | 227 | 0.0 | 0.9 | 0.00 | 0.00 | 0.00 | 57 | 1009.1 |
| 20260505001504 | 63 | 227 | 0.0 | 0.9 | 0.00 | 0.00 | 0.00 | 56 | 1009.2 |
| 20260505000006 | 64 | 227 | 0.0 | 0.9 | 0.00 | 0.00 | 0.00 | 56 | 1009.2 |
| 20260505000004 | 64 | 227 | 0.0 | 0.9 | 0.00 | 0.00 | 0.00 | 56 | 1009.0 |
| 20260504234504 | 65 | 226 | 0.0 | 0.9 | 0.00 | 0.00 | 0.00 | 55 | 1009.1 |
| 20260504233005 | 65 | 229 | 0.0 | 1.7 | 0.00 | 0.00 | 0.00 | 54 | 1008.9 |
| 20260504231504 | 66 | 228 | 0.0 | 1.7 | 0.00 | 0.00 | 0.00 | 54 | 1009.2 |
| 20260504231502 | 66 | 228 | 0.0 | 1.7 | 0.00 | 0.00 | 0.00 | 54 | 1009.0 |
| 20260504230005 | 68 | 225 | 0.0 | 0.9 | 0.00 | 0.00 | 0.00 | 52 | 1009.1 |
| 20260504224504 | 69 | 238 | 0.0 | 0.9 | 0.00 | 0.00 | 0.00 | 51 | 1009.2 |
| 20260504224502 | 69 | 238 | 0.0 | 0.9 | 0.00 | 0.00 | 0.00 | 51 | 1009.1 |
| 20260504223004 | 69 | 230 | 0.0 | 2.6 | 0.00 | 0.00 | 0.00 | 49 | 1009.2 |
| 20260504221503 | 70 | 238 | 0.0 | 0.9 | 0.00 | 0.00 | 0.00 | 48 | 1009.2 |
| 20260504220007 | 70 | 236 | 0.0 | 3.5 | 0.00 | 0.00 | 0.00 | 46 | 1009.2 |
| 20260504220005 | 70 | 236 | 0.0 | 3.5 | 0.00 | 0.00 | 0.00 | 46 | 1009.1 |
| 20260504214505 | 70 | 235 | 0.0 | 4.3 | 0.00 | 0.00 | 0.00 | 46 | 1009.2 |
| 20260504214503 | 70 | 235 | 0.9 | 4.3 | 0.00 | 0.00 | 0.00 | 46 | 1009.3 |
| 20260504213004 | 71 | 232 | 0.9 | 5.2 | 0.00 | 0.00 | 0.00 | 44 | 1009.3 |
| 20260504211503 | 72 | 222 | 0.0 | 3.5 | 0.00 | 0.00 | 0.00 | 45 | 1009.3 |
| 20260504210005 | 73 | 233 | 0.0 | 3.5 | 0.00 | 0.00 | 0.00 | 44 | 1009.3 |
| 20260504204504 | 74 | 224 | 0.0 | 2.6 | 0.00 | 0.00 | 0.00 | 43 | 1009.3 |
| 20260504203009 | 74 | 227 | 0.0 | 3.5 | 0.00 | 0.00 | 0.00 | 44 | 1009.2 |
| 20260504203005 | 74 | 227 | 0.0 | 3.5 | 0.00 | 0.00 | 0.00 | 44 | 1009.3 |
| 20260504201502 | 74 | 238 | 0.9 | 4.3 | 0.00 | 0.00 | 0.00 | 43 | 1009.4 |
| 20260504200005 | 74 | 256 | 0.0 | 2.6 | 0.00 | 0.00 | 0.00 | 42 | 1009.8 |
| 20260504194503 | 73 | 236 | 0.0 | 5.2 | 0.00 | 0.00 | 0.00 | 43 | 1010.0 |
| 20260504193005 | 73 | 246 | 0.9 | 4.3 | 0.00 | 0.00 | 0.00 | 43 | 1010.2 |
| 20260504193002 | 73 | 246 | 1.7 | 4.3 | 0.00 | 0.00 | 0.00 | 43 | 1010.2 |
| 20260504191506 | 73 | 240 | 0.0 | 4.3 | 0.00 | 0.00 | 0.00 | 45 | 1010.4 |
| 20260504191504 | 73 | 240 | 0.9 | 4.3 | 0.00 | 0.00 | 0.00 | 45 | 1010.4 |
| 20260504190008 | 73 | 232 | 0.9 | 2.6 | 0.00 | 0.00 | 0.00 | 43 | 1010.6 |
| 20260504190005 | 73 | 232 | 0.0 | 2.6 | 0.00 | 0.00 | 0.00 | 43 | 1010.6 |
| 20260504184511 | 73 | 237 | 0.0 | 4.3 | 0.00 | 0.00 | 0.00 | 43 | 1010.7 |
| 20260504184504 | 73 | 237 | 0.9 | 4.3 | 0.00 | 0.00 | 0.00 | 43 | 1010.7 |
| 20260504183006 | 72 | 235 | 0.9 | 3.5 | 0.00 | 0.00 | 0.00 | 44 | 1010.7 |
| 20260504183003 | 72 | 235 | 0.0 | 3.5 | 0.00 | 0.00 | 0.00 | 44 | 1010.7 |
| 20260504181503 | 72 | 233 | 0.9 | 4.3 | 0.00 | 0.00 | 0.00 | 42 | 1010.9 |
| 20260504180006 | 72 | 235 | 0.9 | 2.6 | 0.00 | 0.00 | 0.00 | 43 | 1011.3 |
| 20260504174503 | 71 | 227 | 0.0 | 3.5 | 0.00 | 0.00 | 0.00 | 45 | 1011.5 |
| 20260504173006 | 70 | 234 | 0.9 | 3.5 | 0.00 | 0.00 | 0.00 | 43 | 1011.6 |
| 20260504173004 | 70 | 234 | 1.7 | 3.5 | 0.00 | 0.00 | 0.00 | 43 | 1011.7 |
| 20260504171505 | 70 | 233 | 0.9 | 4.3 | 0.00 | 0.00 | 0.00 | 44 | 1011.8 |
| 20260504171503 | 70 | 233 | 0.0 | 4.3 | 0.00 | 0.00 | 0.00 | 44 | 1011.9 |
| 20260504081502 | 44 | 233 | 0.0 | 0.9 | 0.00 | 0.00 | 0.00 | 67 | 1014.6 |